createdAt,value
2022-10-07T00:03:31.249Z,3.90
2022-10-07T00:08:35.927Z,3.77
2022-10-07T00:13:39.097Z,3.68
2022-10-07T00:18:41.671Z,3.61
2022-10-07T00:23:45.453Z,3.61
2022-10-07T00:28:47.149Z,3.51
2022-10-07T00:33:49.754Z,3.38
2022-10-07T00:38:57.100Z,3.42
2022-10-07T00:44:00.010Z,3.40
2022-10-07T00:49:06.827Z,3.43
2022-10-07T00:54:17.092Z,3.34
2022-10-07T00:59:20.522Z,3.23
2022-10-07T01:04:22.187Z,3.19
2022-10-07T01:09:23.921Z,3.15
2022-10-07T01:14:40.664Z,3.08
2022-10-07T01:20:11.908Z,3.10
2022-10-07T01:25:35.184Z,3.02
2022-10-07T01:30:42.364Z,2.90
2022-10-07T01:35:47.314Z,2.98
2022-10-07T01:41:04.361Z,2.96
2022-10-07T01:46:12.423Z,2.89
2022-10-07T01:51:19.124Z,2.83
2022-10-07T01:56:43.669Z,2.88
2022-10-07T02:01:57.618Z,2.87
2022-10-07T02:07:23.646Z,2.77
2022-10-07T02:12:32.282Z,2.66
2022-10-07T02:17:38.553Z,2.58
2022-10-07T02:22:42.634Z,2.50
2022-10-07T02:27:47.604Z,2.49
2022-10-07T02:32:57.237Z,2.43
2022-10-07T02:38:07.557Z,2.42
2022-10-07T02:43:28.931Z,2.42
2022-10-07T02:48:35.547Z,2.47
2022-10-07T02:53:39.711Z,2.52
2022-10-07T02:58:45.854Z,2.45
2022-10-07T03:03:49.253Z,2.38
2022-10-07T03:08:52.008Z,2.29
2022-10-07T03:13:53.877Z,2.28
2022-10-07T03:18:55.891Z,2.24
2022-10-07T03:24:05.766Z,2.15
2022-10-07T03:29:14.401Z,2.19
2022-10-07T03:34:17.144Z,2.15
2022-10-07T03:39:22.122Z,2.15
2022-10-07T03:44:24.068Z,2.06
2022-10-07T03:49:26.797Z,2.05
2022-10-07T03:54:29.526Z,2.02
2022-10-07T03:59:33.107Z,2.05
2022-10-07T04:04:34.976Z,2.02
2022-10-07T04:09:36.608Z,2.08
2022-10-07T04:14:39.130Z,2.00
2022-10-07T04:19:41.060Z,1.91
2022-10-07T04:24:42.683Z,1.86
2022-10-07T04:29:44.335Z,1.76
2022-10-07T04:34:46.129Z,1.75
2022-10-07T04:40:00.080Z,1.71
2022-10-07T04:45:04.615Z,1.62
2022-10-07T04:50:07.949Z,1.64
2022-10-07T04:55:12.430Z,1.56
2022-10-07T05:00:15.090Z,1.57
2022-10-07T05:05:18.001Z,1.54
2022-10-07T05:10:21.211Z,1.54
2022-10-07T05:15:23.600Z,1.51
2022-10-07T05:20:27.121Z,1.50
2022-10-07T05:25:29.866Z,1.55
2022-10-07T05:30:32.704Z,1.59
2022-10-07T05:35:35.269Z,1.71
2022-10-07T05:40:37.090Z,1.78
2022-10-07T05:45:39.049Z,1.80
2022-10-07T05:50:40.830Z,2.00
2022-10-07T05:55:44.773Z,2.18
2022-10-07T06:00:58.044Z,2.25
2022-10-07T06:06:02.846Z,2.35
2022-10-07T06:11:26.065Z,2.48
2022-10-07T06:16:28.452Z,2.61
2022-10-07T06:21:31.046Z,2.78
2022-10-07T06:26:36.612Z,2.94
2022-10-07T06:31:38.340Z,3.14
2022-10-07T06:36:40.156Z,3.39
2022-10-07T06:41:41.865Z,3.56
2022-10-07T06:46:59.370Z,3.77
2022-10-07T06:52:01.332Z,4.03
2022-10-07T06:57:15.469Z,4.39
2022-10-07T07:02:25.767Z,4.72
2022-10-07T07:07:28.654Z,5.12
2022-10-07T07:12:30.311Z,5.56
2022-10-07T07:17:32.107Z,5.91
2022-10-07T07:22:34.096Z,6.28
2022-10-07T07:27:36.590Z,6.72
2022-10-07T07:32:38.372Z,7.17
2022-10-07T07:37:40.059Z,7.53
2022-10-07T07:42:43.149Z,7.91
2022-10-07T07:47:49.296Z,8.22
2022-10-07T07:52:55.220Z,8.68
2022-10-07T07:57:58.700Z,9.31
2022-10-07T08:03:00.408Z,9.91
2022-10-07T08:08:02.308Z,10.43
2022-10-07T08:13:04.304Z,10.93
2022-10-07T08:18:07.976Z,11.29
2022-10-07T08:23:09.654Z,11.63
2022-10-07T08:28:11.283Z,11.98
2022-10-07T08:33:12.974Z,12.28
2022-10-07T08:38:15.462Z,12.48
2022-10-07T08:43:19.682Z,12.89
2022-10-07T08:48:29.629Z,13.13
2022-10-07T08:53:34.426Z,13.54
2022-10-07T08:58:55.442Z,13.97
2022-10-07T09:04:44.999Z,14.37
2022-10-07T09:09:54.891Z,14.76
2022-10-07T09:14:59.252Z,15.09
2022-10-07T09:20:06.783Z,15.40
2022-10-07T09:25:11.638Z,15.49
2022-10-07T09:30:14.347Z,15.74
2022-10-07T09:35:22.056Z,16.03
2022-10-07T09:40:34.681Z,16.01
2022-10-07T09:45:36.497Z,16.18
2022-10-07T09:50:41.176Z,16.41
2022-10-07T09:55:44.885Z,16.54
2022-10-07T10:00:49.055Z,16.58
2022-10-07T10:06:00.337Z,16.81
2022-10-07T10:11:28.419Z,16.88
2022-10-07T10:16:37.625Z,16.87
2022-10-07T10:21:42.638Z,16.49
2022-10-07T10:26:56.574Z,16.64
2022-10-07T10:32:01.261Z,17.25
2022-10-07T10:37:23.659Z,17.36
2022-10-07T10:42:51.533Z,17.47
2022-10-07T10:48:02.928Z,17.67
2022-10-07T10:53:23.587Z,19.44
2022-10-07T10:58:39.259Z,20.67
2022-10-07T11:04:18.142Z,22.60
2022-10-07T11:09:50.924Z,21.94
2022-10-07T11:15:02.505Z,23.95
2022-10-07T11:20:14.500Z,23.97
2022-10-07T11:25:38.653Z,24.98
2022-10-07T11:30:52.335Z,25.40
2022-10-07T11:35:59.600Z,24.61
2022-10-07T11:41:09.746Z,25.04
2022-10-07T11:46:16.629Z,24.03
2022-10-07T11:51:30.214Z,23.28
2022-10-07T11:56:39.081Z,22.09
2022-10-07T12:01:48.023Z,21.74
2022-10-07T12:07:27.588Z,22.32
2022-10-07T12:12:45.381Z,21.43
2022-10-07T12:17:55.494Z,21.44
2022-10-07T12:23:19.083Z,21.39
2022-10-07T12:28:30.700Z,21.23
2022-10-07T12:33:56.096Z,21.97
2022-10-07T12:38:58.545Z,22.61
2022-10-07T12:44:08.547Z,23.02
2022-10-07T12:50:01.703Z,25.79
2022-10-07T12:55:07.574Z,25.69
2022-10-07T13:00:15.293Z,24.45
2022-10-07T13:06:01.951Z,24.79
2022-10-07T13:11:18.899Z,24.94
2022-10-07T13:16:45.082Z,26.01
2022-10-07T13:21:56.147Z,27.74
2022-10-07T13:26:59.270Z,28.98
2022-10-07T13:32:11.159Z,25.34
2022-10-07T13:37:32.566Z,22.37
2022-10-07T13:42:35.313Z,20.42
2022-10-07T13:47:37.597Z,20.31
2022-10-07T13:52:44.525Z,19.81
2022-10-07T13:57:46.845Z,19.59
2022-10-07T14:02:53.011Z,19.09
2022-10-07T14:07:58.224Z,18.63
2022-10-07T14:13:03.411Z,18.37
2022-10-07T14:18:06.446Z,18.57
2022-10-07T14:23:31.184Z,18.62
2022-10-07T14:28:35.927Z,18.44
2022-10-07T14:34:08.542Z,18.30
2022-10-07T14:39:33.325Z,18.26
2022-10-07T14:44:35.432Z,17.77
2022-10-07T14:49:37.173Z,17.57
2022-10-07T14:54:40.107Z,17.56
2022-10-07T14:59:42.194Z,17.43
2022-10-07T15:04:45.620Z,17.60
2022-10-07T15:09:47.644Z,17.38
2022-10-07T15:14:49.435Z,17.01
2022-10-07T15:19:53.039Z,16.68
2022-10-07T15:24:54.905Z,16.29
2022-10-07T15:29:56.651Z,15.83
2022-10-07T15:34:58.867Z,15.38
2022-10-07T15:40:00.675Z,15.02
2022-10-07T15:45:02.428Z,14.69
2022-10-07T15:50:06.010Z,14.46
2022-10-07T15:55:09.054Z,14.33
2022-10-07T16:00:11.564Z,14.27
2022-10-07T16:05:15.945Z,14.37
2022-10-07T16:10:17.697Z,14.05
2022-10-07T16:15:20.645Z,13.79
2022-10-07T16:20:22.490Z,13.48
2022-10-07T16:25:24.242Z,13.13
2022-10-07T16:30:41.128Z,12.74
2022-10-07T16:35:42.886Z,12.39
2022-10-07T16:40:52.800Z,12.10
2022-10-07T16:45:54.589Z,11.89
2022-10-07T16:50:56.341Z,11.75
2022-10-07T16:56:01.460Z,11.52
2022-10-07T17:01:14.852Z,11.31
2022-10-07T17:06:19.325Z,11.17
2022-10-07T17:11:29.071Z,10.98
2022-10-07T17:16:37.827Z,10.79
2022-10-07T17:21:41.940Z,10.71
2022-10-07T17:26:44.382Z,10.51
2022-10-07T17:31:48.391Z,10.36
2022-10-07T17:36:50.193Z,10.19
2022-10-07T17:41:51.834Z,10.00
2022-10-07T17:46:55.583Z,9.94
2022-10-07T17:51:57.510Z,9.89
2022-10-07T17:56:59.433Z,9.96
2022-10-07T18:02:03.149Z,9.95
2022-10-07T18:07:04.840Z,9.79
2022-10-07T18:12:25.203Z,9.70
2022-10-07T18:17:27.322Z,9.65
2022-10-07T18:22:28.994Z,9.56
2022-10-07T18:27:31.242Z,9.43
2022-10-07T18:32:32.972Z,9.28
2022-10-07T18:37:34.645Z,9.17
2022-10-07T18:42:37.811Z,9.19
2022-10-07T18:47:39.414Z,9.13
2022-10-07T18:52:41.251Z,9.06
2022-10-07T18:57:42.903Z,9.00
2022-10-07T19:02:46.071Z,8.96
2022-10-07T19:07:48.029Z,8.95
2022-10-07T19:13:08.306Z,8.93
2022-10-07T19:18:10.600Z,8.91
2022-10-07T19:23:12.291Z,8.93
2022-10-07T19:28:14.062Z,8.99
2022-10-07T19:33:16.119Z,9.04
2022-10-07T19:38:17.694Z,8.95
2022-10-07T19:43:19.356Z,8.86
2022-10-07T19:48:21.292Z,8.71
2022-10-07T19:53:22.908Z,8.52
2022-10-07T19:58:24.591Z,8.45
2022-10-07T20:03:26.247Z,8.53
2022-10-07T20:08:31.918Z,8.43
2022-10-07T20:13:35.739Z,8.56
2022-10-07T20:18:40.250Z,8.37
2022-10-07T20:23:44.497Z,8.24
2022-10-07T20:28:50.567Z,8.44
2022-10-07T20:33:54.645Z,8.61
2022-10-07T20:39:20.629Z,8.47
2022-10-07T20:44:22.397Z,8.37
2022-10-07T20:49:28.430Z,8.22
2022-10-07T20:54:31.272Z,8.16
2022-10-07T20:59:33.302Z,8.07
2022-10-07T21:04:34.890Z,8.04
2022-10-07T21:09:36.821Z,7.94
2022-10-07T21:14:38.427Z,7.98
2022-10-07T21:19:40.213Z,7.89
2022-10-07T21:24:41.841Z,7.88
2022-10-07T21:29:47.994Z,7.78
2022-10-07T21:34:50.549Z,7.68
2022-10-07T21:39:52.158Z,7.56
2022-10-07T21:44:53.777Z,7.47
2022-10-07T21:49:56.920Z,7.40
2022-10-07T21:54:58.553Z,7.44
2022-10-07T22:00:00.086Z,7.43
2022-10-07T22:05:01.633Z,7.53
2022-10-07T22:10:03.451Z,7.57
2022-10-07T22:15:05.430Z,7.44
2022-10-07T22:20:08.330Z,7.35
2022-10-07T22:25:09.905Z,7.33
2022-10-07T22:30:11.939Z,7.25
2022-10-07T22:35:30.442Z,7.10
2022-10-07T22:40:38.493Z,7.02
2022-10-07T22:45:40.084Z,7.06
2022-10-07T22:50:41.617Z,7.04
2022-10-07T22:55:43.799Z,6.99
2022-10-07T23:00:47.004Z,7.00
2022-10-07T23:05:50.734Z,7.01
2022-10-07T23:11:00.997Z,7.07
2022-10-07T23:16:06.490Z,7.11
2022-10-07T23:21:16.575Z,7.12
2022-10-07T23:26:24.159Z,7.25
2022-10-07T23:31:28.441Z,7.33
2022-10-07T23:36:31.219Z,7.39
2022-10-07T23:41:33.293Z,7.42
2022-10-07T23:46:36.386Z,7.39
2022-10-07T23:51:38.254Z,7.42
2022-10-07T23:56:40.009Z,7.52
